PROFILE

 METAR AND TAF INFORMATION
ADDS - METARS form results

(0327 UTC 30 November 2021)
http://aviationweather.gov/metar/data/
 
BIKF 300300Z 13016KT 9999 -RASN BKN006 BKN035 01/00 Q1001
BIKF 300230Z 13015KT 9999 -DZ FEW006 SCT036 BKN070 01/00 Q1001
TAF BIKF 300111Z 3003/0103 14016KT 9999 -RASN BKN008 OVC018 TX01/3003Z TNM03/0103Z TEMPO 3003/3007 2000 SN OVC006 BECMG 3007/3009 03008KT BECMG 3011/3013 NSW SCT020 BKN032 BECMG 3018/3020 33014KT 

 AIRPORT MAP

 RUNWAY INFORMATION
Runway 02 Runway length 10019 ft Runway width 197 ft
Runway elevation 137 ft Runway displaced threshold 19 ft Runway heading 360
Runway 20 Runway length 10019 ft Runway width 197 ft
Runway elevation 163 ft Runway displaced threshold 19 ft Runway heading 180
Runway 11 Runway length 10056 ft Runway width 197 ft
Runway elevation 111 ft Runway displaced threshold 43 ft Runway heading 90
Runway 29 Runway length 10056 ft Runway width 197 ft
Runway elevation 171 ft Runway displaced threshold 43 ft Runway heading 270

 AIRPORT FREQUENCIES
Type A/G Name AIR GND Frequency 131.9 MHZ
Type APP Name APP Frequency 119.3 MHZ
Type ATIS Name ATIS Frequency 128.3 MHZ
Type DEP Name DEP Frequency 119.3 MHZ
Type GND Name GND Frequency 121.9 MHZ
Type OPS Name BASE OPS Frequency 129 MHZ
Type PMSV Name PMSV METR Frequency 125 MHZ
Type TWR Name TWR Frequency 118.3 MHZ

 AIRPORT NEAR NAVIGATION AIDS
Type VORTAC Name Keflavik Frequency 112000 KHZ
Type NDB Name Keflavik Frequency 392 KHZ
Type NDB Name Oscar Kilo Frequency 364 KHZ